Wednesday, August 15, 2018, 4:44 AM EDT
Back to Local

KWRI, Mcguire Air Force Base

Location: Trenton, NJ, United States Lat: 40.017
Local Time: 4:44 AM EDT ( 8:44 GMT) Lon: -74.6
Time Zone: US/Eastern Elev: 134 ft

Show me the last for .
Show Decoded

2018-08-15 03:56 METAR KWRI 150756Z AUTO 26004KT 10SM FEW110 20/20 A2986 RMK AO2 SLP110 T02020195
                 $ =
2018-08-15 02:56 METAR KWRI 150656Z AUTO 25006KT 10SM BKN130 21/20 A2987 RMK AO2 RAB35E45 SLP114
                 P0000 T02070197 $ =
2018-08-15 02:45 METAR KWRI 150645Z AUTO 25006KT 10SM BKN120 21/20 A2986 RMK AO2 RAB35E45 SLP110
                 $ =
2018-08-15 02:35 METAR KWRI 150635Z AUTO 26007KT 10SM -RA SCT055 BKN120 21/20 A2986 RMK AO2 RAB35
                 SLP110 $ =
2018-08-15 01:56 METAR KWRI 150556Z AUTO 24005KT 10SM FEW037 SCT050 BKN065 21/20 A2987 RMK AO2
                 SLP114 60000 T02080199 10214 20201 58000 $ =
2018-08-15 00:56 METAR KWRI 150456Z AUTO 25008KT 10SM BKN047 BKN060 21/20 A2987 RMK AO2 SLPNO
                 T02110199 402850185 $ =
2018-08-14 23:56 METAR KWRI 150356Z AUTO 28007KT 10SM FEW060 21/20 A2987 RMK AO2 RAB31E54 SLPNO
                 P0000 T02140198 $ =
2018-08-14 23:54 METAR KWRI 150354Z AUTO 28006KT 10SM FEW060 FEW085 21/20 A2987 RMK AO2 RAB31E54
                 SLPNO $ =
2018-08-14 23:31 METAR KWRI 150331Z AUTO 27006KT 10SM -RA FEW060 21/20 A2987 RMK AO2 RAB31 SLPNO
                 $ =
2018-08-14 22:56 METAR KWRI 150256Z AUTO 26005KT 10SM CLR 21/20 A2987 RMK AO2 SLPNO T02100200
                 50008 $ =
2018-08-14 21:56 METAR KWRI 150156Z AUTO 00000KT 10SM FEW037 SCT070 21/20 A2986 RMK AO2 LTG DSNT
                 S SLPNO T02070202 $ =
2018-08-14 20:56 METAR KWRI 150056Z AUTO 00000KT 10SM CLR 20/20 A2986 RMK AO2 SLP111 T02020197
                 TSNO $ =
2018-08-14 19:56 METAR KWRI 142356Z AUTO 25003KT 10SM CLR 21/20 A2985 RMK AO2 RAE06DZB06E07
                 SLP107 P0001 60022 T02090199 10279 20201 50006 $ =
2018-08-14 19:07 METAR KWRI 142307Z AUTO 25006KT 10SM FEW038 SCT085 21/19 A2985 RMK AO2
                 RAE06DZB06E07 SLP107 $ =
2018-08-14 18:56 METAR KWRI 142256Z 27005KT 10SM -RA BKN042 20/19 A2985 RMK AO2A LTG DSNT NE
                 RAB13 TSE13TSB24E40 SLP107 P0018 T02020192 $ =
2018-08-14 18:40 METAR KWRI 142240Z 27009KT 4SM RA BR OVC040 20/19 A2986 RMK AO2A RAB13
                 TSE13TSB24E40 SLP111 $ =
2018-08-14 18:24 METAR KWRI 142224Z COR 29010KT 3SM TSRA BKN033 BKN100 21/20 A2986 RMK VIS 2
                 3/4V8 VIS 2 RWY18 LTG DSNT NE-E AND SW RAB13 TSE13B24 SLP111 $ COR 2240 =
2018-08-14 18:13 METAR KWRI 142213Z 29014G21KT 4SM -RA FEW038 BKN100 23/20 A2986 RMK AO2A LTG
                 DSNT N AND W RAB13 TSE13 SLP111 $ =
2018-08-14 17:56 METAR KWRI 142156Z 24010KT 10SM TS FEW045 SCT100 BKN210 23/21 A2984 RMK LTG DSNT
                 NE AND NW RAB2056E13 TSB45 SLP104 P0000 T02320205 $ =
2018-08-14 17:45 METAR KWRI 142145Z COR 22010KT 10SM TS FEW045 SCT110 BKN210 24/21 A2984 RMK AO2A
                 LTG DSNT NW RAB2056E13 SLP104 $ COR 2150 =
2018-08-14 16:56 METAR KWRI 142056Z AUTO 25004KT 10SM CLR 22/19 A2983 RMK AO2 LTG DSNT NE RAB18
                 SLP100 P0002 60003 T02180190 55005 $ =
2018-08-14 16:54 METAR KWRI 142054Z AUTO 26005KT 10SM CLR 22/19 A2983 RMK AO2 LTG DSNT NE RAB18
                 SLP100 $ =
2018-08-14 16:20 METAR KWRI 142020Z AUTO 28013G19KT 10SM -RA FEW100 23/20 A2983 RMK AO2 LTG DSNT
                 N AND SW RAB18 SLP100 $ =
2018-08-14 15:56 METAR KWRI 141956Z AUTO 27010KT 10SM FEW140 26/20 A2982 RMK AO2 LTG DSNT N-NE
                 AND W RAB05E16DZB16E17 SLP097 P0000 T02590197 $ =
2018-08-14 15:17 METAR KWRI 141917Z AUTO 25011KT 10SM FEW130 26/21 A2982 RMK AO2 LTG DSNT W-NW
                 RAB05E16DZB16E17 SLP097 $ =
2018-08-14 15:06 METAR KWRI 141906Z AUTO 25010KT 10SM -RA FEW120 26/21 A2982 RMK AO2 LTG DSNT
                 NW-N RAB05 SLP097 $ =
2018-08-14 14:56 METAR KWRI 141856Z AUTO 24010KT 10SM FEW033 FEW100 26/21 A2982 RMK AO2
                 RAE08RAB29E45 SLP097 P0001 T02640214 $ =
2018-08-14 14:45 METAR KWRI 141845Z AUTO 25008KT 10SM FEW033 FEW100 27/21 A2982 RMK AO2
                 RAE08RAB29E45 SLP097 $ =
2018-08-14 14:29 METAR KWRI 141829Z AUTO 23010KT 10SM -RA FEW017 FEW033 SCT100 27/21 A2983 RMK
                 AO2 RAE08RAB29 SLP100 $ =
2018-08-14 14:08 METAR KWRI 141808Z AUTO 21011KT 10SM FEW023 SCT032 BKN041 26/21 A2984 RMK AO2
                 RAE08 SLP104 $ =
2018-08-14 13:56 METAR KWRI 141756Z AUTO 24010KT 10SM -RA BKN032 26/21 A2984 RMK AO2 RAB53 SLP104
                 P0000 60000 T02640207 10285 20212 $ =
2018-08-14 13:53 METAR KWRI 141753Z AUTO 24008KT 10SM -RA BKN032 27/20 A2984 RMK AO2 RAB53 SLP103
                 $ =
2018-08-14 12:56 METAR KWRI 141656Z 22010KT 10SM FEW029 28/20 A2985 RMK SLPNO =
2018-08-14 12:25 METAR KWRI 141625Z AUTO 22007KT 10SM SCT025 27/20 A2986 RMK AO2 RAB20E25 SLP110
                 $ =
2018-08-14 12:20 METAR KWRI 141620Z AUTO 22010KT 10SM -RA SCT024 27/20 A2986 RMK AO2 RAB20 SLP110
                 $ =
2018-08-14 11:56 METAR KWRI 141556Z AUTO 24008KT 10SM FEW024 27/20 A2987 RMK AO2 SLP114 T02660199
                 $ =
2018-08-14 11:36 METAR KWRI 141536Z AUTO 24010KT 10SM BKN021 25/20 A2987 RMK AO2 SLP114 $ =
2018-08-14 11:26 METAR KWRI 141526Z AUTO 23009KT 10SM BKN019 25/20 A2988 RMK AO2 CIG 015V022 CIG
                 016 RWY06 SLP117 $ =
2018-08-14 11:06 METAR KWRI 141506Z AUTO 26008KT 10SM BKN015 25/20 A2988 RMK AO2 SLP117 $ =
2018-08-14 10:56 METAR KWRI 141456Z AUTO 24006KT 10SM BKN014 25/20 A2988 RMK AO2 BKN V SCT SLP117
                 T02540204 53003 $ =
2018-08-14 10:36 METAR KWRI 141436Z AUTO 24009KT 10SM SCT013 25/20 A2989 RMK AO2 SLP121 $ =
2018-08-14 10:16 METAR KWRI 141416Z AUTO 23007KT 10SM BKN011 OVC016 23/20 A2988 RMK AO2 BKN V OVC
                 CIG 010 RWY06 SLP117 $ =
2018-08-14 10:11 METAR KWRI 141411Z AUTO 24009KT 10SM BKN009 OVC014 23/20 A2988 RMK AO2 CIG
                 007V012 CIG 008 RWY06 SLP117 $ =
2018-08-14 09:56 METAR KWRI 141356Z AUTO 25008KT 10SM BKN007 OVC012 22/20 A2988 RMK AO2 BKN V OVC
                 CIG 006 RWY18 SLP117 T02230204 $ =
2018-08-14 09:49 METAR KWRI 141349Z 25008KT 10SM OVC007 22/20 A2988 RMK AO2A CIG 006 RWY18 SLP117
                 $ =
2018-08-14 09:19 METAR KWRI 141319Z AUTO 24004KT 10SM OVC008 22/20 A2988 RMK AO2 CIG 007 RWY06
                 CIG 006 RWY18 SLP117 $ =
2018-08-14 08:56 METAR KWRI 141256Z 27006KT 10SM OVC007 22/20 A2987 RMK AO2A CIG 006 RWY18 SLP114
                 T02220203 $ =
2018-08-14 08:39 METAR KWRI 141239Z 25004KT 10SM BKN007 23/20 A2987 RMK AO2A CIG 006 RWY18 SLP114
                 $ =
2018-08-14 08:29 METAR KWRI 141229Z 27006KT 10SM BKN006 22/20 A2986 RMK AO2A SLP110 $ =
2018-08-14 08:24 METAR KWRI 141224Z COR AUTO 26005KT 10SM SCT006 22/20 A2986 RMK AO2 SLP110 $ COR
                 1228 =
2018-08-14 07:59 METAR KWRI 141159Z AUTO 24006KT 10SM FEW005 21/20 A2988 RMK AO2 SLP117 $ =
2018-08-14 07:56 METAR KWRI 141156Z AUTO 23005KT 10SM CLR 21/20 A2988 RMK AO2 SLP117 70012
                 T02110196 10211 20185 51009 $ =
2018-08-14 06:56 METAR KWRI 141056Z AUTO 25003KT 10SM CLR 19/19 A2988 RMK AO2 SLP117 T01940187 $
                 =
2018-08-14 05:56 METAR KWRI 140956Z 20004KT 10SM CLR 19/18 A2986 RMK AO2A SLP110 WND DATA ESTMD
                 T01870182 $ =
2018-08-14 04:56 METAR KWRI 140856Z 18003KT 10SM CLR 19/18 A2985 RMK AO2A SLP107 WND DATA ESTMD
                 T01880183 55006 $ =

Support USWX by starting your Amazon purchase here.